createdAt,value
2017-11-12T00:00:25.857Z,54.90
2017-11-12T00:02:54.143Z,55.10
2017-11-12T00:05:22.442Z,54.30
2017-11-12T00:07:50.923Z,54.90
2017-11-12T00:10:19.197Z,55.50
2017-11-12T00:12:47.465Z,55.20
2017-11-12T00:15:16.089Z,55.10
2017-11-12T00:17:44.353Z,55.10
2017-11-12T00:20:12.587Z,54.90
2017-11-12T00:22:41.612Z,54.80
2017-11-12T00:25:10.346Z,54.80
2017-11-12T00:27:38.894Z,54.50
2017-11-12T00:30:07.161Z,54.90
2017-11-12T00:32:35.397Z,53.90
2017-11-12T00:35:03.961Z,56.30
2017-11-12T00:37:32.328Z,57.60
2017-11-12T00:40:00.581Z,57.90
2017-11-12T00:42:28.842Z,57.40
2017-11-12T00:44:57.083Z,57.60
2017-11-12T00:47:25.716Z,57.30
2017-11-12T00:49:53.980Z,57.30
2017-11-12T00:52:22.232Z,57.20
2017-11-12T00:54:50.874Z,55.80
2017-11-12T00:57:19.121Z,55.80
2017-11-12T00:59:47.364Z,56.60
2017-11-12T01:02:15.735Z,56.30
2017-11-12T01:04:44.040Z,55.80
2017-11-12T01:07:12.289Z,55.80
2017-11-12T01:09:40.921Z,55.40
2017-11-12T01:12:09.197Z,55.40
2017-11-12T01:14:37.678Z,54.80
2017-11-12T01:17:05.909Z,55.70
2017-11-12T01:19:34.629Z,55.70
2017-11-12T01:22:02.870Z,55.70
2017-11-12T01:24:31.497Z,55.80
2017-11-12T01:26:59.772Z,55.80
2017-11-12T01:29:28.390Z,56.60
2017-11-12T01:31:56.632Z,56.30
2017-11-12T01:34:24.885Z,55.80
2017-11-12T01:36:53.123Z,55.70
2017-11-12T01:39:21.396Z,55.70
2017-11-12T01:41:49.628Z,56.00
2017-11-12T01:44:17.878Z,56.30
2017-11-12T01:46:46.554Z,55.80
2017-11-12T01:49:15.189Z,55.40
2017-11-12T01:51:43.422Z,55.50
2017-11-12T01:54:11.667Z,55.40
2017-11-12T01:56:39.914Z,54.60
2017-11-12T01:59:08.211Z,55.10
2017-11-12T02:01:36.451Z,54.90
2017-11-12T02:04:04.715Z,54.80
2017-11-12T02:06:32.985Z,54.10
2017-11-12T02:09:01.226Z,55.40
2017-11-12T02:11:29.455Z,56.10
2017-11-12T02:13:57.707Z,56.10
2017-11-12T02:16:25.954Z,55.70
2017-11-12T02:18:54.205Z,55.50
2017-11-12T02:21:22.465Z,55.40
2017-11-12T02:23:50.702Z,55.10
2017-11-12T02:26:18.950Z,54.90
2017-11-12T02:28:47.191Z,54.80
2017-11-12T02:31:15.425Z,54.30
2017-11-12T02:33:43.682Z,54.60
2017-11-12T02:36:11.953Z,54.60
2017-11-12T02:38:40.192Z,54.90
2017-11-12T02:41:08.425Z,54.50
2017-11-12T02:43:37.133Z,55.20
2017-11-12T02:46:05.366Z,55.20
2017-11-12T02:48:33.627Z,55.10
2017-11-12T02:51:01.911Z,54.90
2017-11-12T02:53:30.158Z,54.80
2017-11-12T02:55:58.404Z,54.80
2017-11-12T02:58:26.944Z,54.80
2017-11-12T03:00:55.185Z,54.30
2017-11-12T03:03:23.414Z,53.60
2017-11-12T03:05:52.049Z,55.20
2017-11-12T03:08:20.365Z,55.20
2017-11-12T03:10:49.441Z,55.70
2017-11-12T03:13:17.681Z,55.70
2017-11-12T03:15:45.929Z,58.30
2017-11-12T03:18:14.561Z,57.70
2017-11-12T03:20:42.808Z,57.70
2017-11-12T03:23:11.065Z,57.30
2017-11-12T03:25:39.723Z,57.00
2017-11-12T03:28:07.968Z,57.00
2017-11-12T03:30:36.223Z,56.70
2017-11-12T03:33:04.541Z,55.50
2017-11-12T03:35:32.767Z,55.80
2017-11-12T03:38:00.997Z,56.40
2017-11-12T03:40:29.258Z,55.70
2017-11-12T03:42:57.494Z,56.00
2017-11-12T03:45:25.742Z,56.10
2017-11-12T03:47:54.515Z,56.40
2017-11-12T03:50:22.763Z,56.40
2017-11-12T03:52:51.000Z,56.60
2017-11-12T03:55:19.365Z,56.30
2017-11-12T03:57:47.998Z,55.70
2017-11-12T04:00:16.227Z,55.70
2017-11-12T04:02:44.874Z,56.10
2017-11-12T04:05:13.115Z,56.10
2017-11-12T04:07:41.347Z,55.80
2017-11-12T04:10:09.633Z,55.70
2017-11-12T04:12:38.269Z,55.40
2017-11-12T04:15:06.515Z,55.40
2017-11-12T04:17:34.766Z,55.20
2017-11-12T04:20:03.401Z,54.90
2017-11-12T04:22:31.641Z,54.90
2017-11-12T04:25:00.379Z,54.80
2017-11-12T04:27:28.657Z,54.80
2017-11-12T04:29:56.893Z,54.80
2017-11-12T04:32:25.170Z,54.80
2017-11-12T04:34:53.411Z,54.80
2017-11-12T04:37:21.654Z,54.80
2017-11-12T04:39:50.145Z,54.80
2017-11-12T04:42:18.382Z,54.90
2017-11-12T04:44:46.654Z,55.10
2017-11-12T04:47:14.998Z,55.70
2017-11-12T04:49:43.617Z,57.90
2017-11-12T04:52:11.881Z,57.90
2017-11-12T04:54:40.138Z,57.60
2017-11-12T04:57:08.429Z,57.40
2017-11-12T04:59:36.972Z,56.90
2017-11-12T05:02:05.239Z,56.60
2017-11-12T05:04:33.483Z,56.40
2017-11-12T05:07:01.757Z,56.10
2017-11-12T05:09:30.014Z,56.10
2017-11-12T05:11:58.257Z,55.80
2017-11-12T05:14:26.511Z,55.70
2017-11-12T05:16:54.765Z,55.20
2017-11-12T05:19:23.018Z,55.20
2017-11-12T05:21:51.689Z,54.90
2017-11-12T05:24:19.913Z,54.60
2017-11-12T05:26:48.164Z,54.90
2017-11-12T05:29:16.409Z,54.80
2017-11-12T05:31:45.039Z,54.90
2017-11-12T05:34:13.336Z,54.90
2017-11-12T05:36:41.569Z,56.10
2017-11-12T05:39:09.813Z,56.10
2017-11-12T05:41:38.489Z,55.50
2017-11-12T05:44:06.745Z,55.50
2017-11-12T05:46:35.418Z,56.30
2017-11-12T05:49:03.685Z,55.80
2017-11-12T05:51:31.957Z,56.30
2017-11-12T05:54:00.196Z,56.10
2017-11-12T05:56:28.828Z,55.80
2017-11-12T05:58:57.080Z,55.80
2017-11-12T06:01:25.321Z,56.30
2017-11-12T06:03:53.554Z,56.00
2017-11-12T06:06:21.820Z,56.00
2017-11-12T06:08:50.085Z,56.10
2017-11-12T06:11:18.340Z,55.80
2017-11-12T06:13:47.039Z,56.30
2017-11-12T06:16:15.277Z,56.30
2017-11-12T06:18:43.533Z,56.70
2017-11-12T06:21:11.821Z,56.60
2017-11-12T06:23:40.077Z,57.40
2017-11-12T06:26:08.307Z,57.40
2017-11-12T06:28:36.582Z,58.50
2017-11-12T06:31:05.223Z,58.00
2017-11-12T06:33:33.510Z,58.00
2017-11-12T06:36:01.768Z,59.40
2017-11-12T06:38:29.990Z,60.10
2017-11-12T06:40:58.668Z,58.90
2017-11-12T06:43:27.297Z,59.20
2017-11-12T06:45:55.630Z,59.40
2017-11-12T06:48:24.283Z,58.30
2017-11-12T06:50:52.769Z,58.30
2017-11-12T06:53:22.070Z,57.90
2017-11-12T06:55:50.308Z,57.60
2017-11-12T06:58:18.549Z,56.70
2017-11-12T07:00:47.890Z,56.70
2017-11-12T07:03:16.123Z,56.70
2017-11-12T07:05:44.763Z,56.90
2017-11-12T07:08:13.012Z,56.90
2017-11-12T07:10:41.257Z,57.00
2017-11-12T07:13:09.510Z,57.30
2017-11-12T07:15:37.847Z,57.00
2017-11-12T07:18:06.088Z,56.60
2017-11-12T07:20:34.753Z,56.70
2017-11-12T07:23:03.006Z,56.70
2017-11-12T07:25:31.256Z,56.90
2017-11-12T07:27:59.507Z,58.60
2017-11-12T07:30:28.140Z,58.50
2017-11-12T07:32:56.374Z,58.50
2017-11-12T07:35:25.023Z,57.90
2017-11-12T07:37:53.258Z,57.60
2017-11-12T07:40:22.010Z,59.40
2017-11-12T07:42:50.299Z,57.70
2017-11-12T07:45:18.536Z,58.90
2017-11-12T07:47:46.815Z,58.00
2017-11-12T07:50:15.059Z,57.20
2017-11-12T07:52:43.306Z,56.90
2017-11-12T07:55:11.582Z,57.00
2017-11-12T07:57:39.822Z,56.60
2017-11-12T08:00:08.064Z,56.00
2017-11-12T08:02:36.344Z,54.90
2017-11-12T08:05:04.594Z,53.30
2017-11-12T08:07:33.115Z,55.80
2017-11-12T08:10:01.487Z,56.30
2017-11-12T08:12:29.727Z,56.40
2017-11-12T08:14:58.008Z,55.80
2017-11-12T08:17:26.530Z,55.40
2017-11-12T08:19:54.813Z,54.60
2017-11-12T08:22:23.065Z,54.60
2017-11-12T08:24:51.319Z,53.20
2017-11-12T08:27:19.602Z,54.30
2017-11-12T08:29:47.832Z,53.50
2017-11-12T08:32:16.685Z,54.80
2017-11-12T08:34:44.963Z,54.80
2017-11-12T08:37:13.470Z,54.20
2017-11-12T08:39:41.714Z,55.10
2017-11-12T08:42:09.972Z,54.20
2017-11-12T08:44:38.215Z,54.10
2017-11-12T08:47:06.490Z,53.80
2017-11-12T08:49:35.125Z,54.30
2017-11-12T08:52:03.386Z,54.30
2017-11-12T08:54:31.656Z,55.40
2017-11-12T08:56:59.902Z,58.90
2017-11-12T08:59:28.655Z,62.20
2017-11-12T09:01:56.937Z,62.20
2017-11-12T09:04:25.169Z,59.40
2017-11-12T09:06:54.134Z,56.00
2017-11-12T09:09:22.997Z,57.30
2017-11-12T09:11:51.309Z,56.60
2017-11-12T09:14:19.985Z,55.70
2017-11-12T09:16:48.669Z,54.20
2017-11-12T09:19:17.289Z,53.60
2017-11-12T09:21:45.870Z,53.60
2017-11-12T09:24:14.188Z,52.70
2017-11-12T09:26:42.425Z,54.90
2017-11-12T09:29:10.677Z,53.30
2017-11-12T09:31:39.320Z,53.50
2017-11-12T09:34:07.561Z,51.70
2017-11-12T09:36:35.802Z,53.00
2017-11-12T09:39:04.083Z,48.40
2017-11-12T09:41:32.359Z,51.50
2017-11-12T09:44:00.680Z,52.70
2017-11-12T09:46:28.976Z,52.00
2017-11-12T09:48:57.226Z,49.20
2017-11-12T09:51:25.740Z,50.50
2017-11-12T09:53:54.013Z,51.50
2017-11-12T09:56:22.270Z,52.00
2017-11-12T09:58:50.514Z,52.00
2017-11-12T10:01:18.806Z,51.20
2017-11-12T10:03:47.146Z,49.30
2017-11-12T10:06:15.888Z,52.10
2017-11-12T10:08:44.150Z,47.80
2017-11-12T10:11:12.401Z,50.80
2017-11-12T10:13:40.668Z,51.70
2017-11-12T10:16:09.746Z,49.30
2017-11-12T10:18:38.415Z,52.40
2017-11-12T10:21:06.806Z,52.40
2017-11-12T10:23:35.187Z,56.10
2017-11-12T10:26:03.858Z,58.60
2017-11-12T10:28:32.156Z,58.60
2017-11-12T10:31:00.785Z,60.00
2017-11-12T10:33:29.043Z,60.10
2017-11-12T10:35:57.303Z,62.20
2017-11-12T10:38:25.631Z,61.00
2017-11-12T10:40:54.036Z,61.90
2017-11-12T10:43:22.676Z,61.00
2017-11-12T10:45:51.392Z,61.00
2017-11-12T10:48:20.817Z,62.60
2017-11-12T10:50:49.453Z,55.50
2017-11-12T10:53:17.729Z,55.40
2017-11-12T10:55:46.086Z,56.30
2017-11-12T10:58:14.333Z,52.90
2017-11-12T11:00:42.974Z,55.20
2017-11-12T11:03:11.271Z,55.20
2017-11-12T11:05:39.927Z,55.40
2017-11-12T11:08:08.177Z,55.50
2017-11-12T11:10:36.466Z,52.00
2017-11-12T11:13:05.270Z,58.80
2017-11-12T11:15:33.528Z,55.10
2017-11-12T11:18:02.050Z,54.90
2017-11-12T11:20:30.330Z,50.50
2017-11-12T11:22:58.577Z,52.30
2017-11-12T11:25:27.223Z,51.20
2017-11-12T11:27:55.512Z,53.80
2017-11-12T11:30:23.770Z,48.40
2017-11-12T11:32:52.090Z,52.60
2017-11-12T11:35:20.353Z,49.80
2017-11-12T11:37:48.757Z,50.50
2017-11-12T11:40:17.100Z,48.90
2017-11-12T11:42:45.659Z,45.30
2017-11-12T11:45:13.920Z,46.50
2017-11-12T11:47:42.575Z,49.80
2017-11-12T11:50:10.819Z,49.80
2017-11-12T11:52:39.089Z,50.70
2017-11-12T11:55:07.378Z,51.50
2017-11-12T11:57:35.610Z,52.90
2017-11-12T12:00:03.897Z,54.80
2017-11-12T12:02:32.535Z,54.50
2017-11-12T12:05:00.777Z,54.50
2017-11-12T12:07:29.033Z,50.80
2017-11-12T12:09:57.691Z,56.60
2017-11-12T12:12:25.956Z,56.60
2017-11-12T12:14:54.207Z,55.80
2017-11-12T12:17:22.471Z,52.70
2017-11-12T12:19:50.721Z,49.60
2017-11-12T12:22:18.998Z,53.80
2017-11-12T12:24:47.280Z,51.50
2017-11-12T12:27:15.521Z,48.90
2017-11-12T12:29:43.794Z,49.90
2017-11-12T12:32:12.050Z,52.40
2017-11-12T12:34:40.287Z,54.60
2017-11-12T12:37:08.555Z,54.10
2017-11-12T12:39:37.287Z,53.50
2017-11-12T12:42:05.554Z,53.50
2017-11-12T12:44:33.792Z,54.90
2017-11-12T12:47:02.605Z,53.20
2017-11-12T12:49:30.853Z,53.20
2017-11-12T12:51:59.507Z,55.20
2017-11-12T12:54:27.785Z,56.30
2017-11-12T12:56:56.045Z,56.90
2017-11-12T12:59:24.303Z,56.10
2017-11-12T13:01:52.585Z,59.70
2017-11-12T13:04:20.871Z,56.60
2017-11-12T13:06:49.137Z,58.50
2017-11-12T13:09:17.450Z,58.50
2017-11-12T13:11:45.763Z,59.10
2017-11-12T13:14:14.001Z,58.30
2017-11-12T13:16:42.314Z,58.30
2017-11-12T13:19:10.597Z,66.00
2017-11-12T13:21:38.892Z,61.70
2017-11-12T13:24:07.154Z,63.70
2017-11-12T13:26:35.477Z,61.50
2017-11-12T13:29:03.927Z,61.30
2017-11-12T13:31:32.218Z,57.40
2017-11-12T13:34:00.504Z,56.40
2017-11-12T13:36:28.852Z,58.00
2017-11-12T13:38:57.122Z,55.80
2017-11-12T13:41:25.393Z,56.40
2017-11-12T13:43:53.669Z,57.60
2017-11-12T13:46:21.931Z,58.60
2017-11-12T13:48:50.188Z,59.40
2017-11-12T13:51:18.553Z,62.40
2017-11-12T13:53:46.951Z,60.80
2017-11-12T13:56:15.627Z,62.10
2017-11-12T13:58:43.873Z,62.10
2017-11-12T14:01:12.201Z,58.00
2017-11-12T14:03:40.533Z,58.20
2017-11-12T14:06:09.234Z,60.40
2017-11-12T14:08:37.533Z,60.40
2017-11-12T14:11:06.178Z,56.00
2017-11-12T14:13:34.421Z,56.00
2017-11-12T14:16:02.718Z,58.90
2017-11-12T14:18:32.105Z,54.90
2017-11-12T14:21:00.343Z,60.80
2017-11-12T14:23:28.996Z,58.20
2017-11-12T14:25:57.249Z,58.00
2017-11-12T14:28:25.515Z,59.80
2017-11-12T14:30:54.404Z,61.00
2017-11-12T14:33:22.642Z,59.20
2017-11-12T14:35:50.996Z,59.80
2017-11-12T14:38:19.225Z,59.70
2017-11-12T14:40:47.475Z,59.70
2017-11-12T14:43:16.143Z,59.80
2017-11-12T14:45:44.407Z,59.80
2017-11-12T14:48:12.677Z,61.90
2017-11-12T14:50:41.467Z,59.50
2017-11-12T14:53:09.755Z,56.90
2017-11-12T14:55:37.997Z,58.00
2017-11-12T14:58:07.029Z,59.20
2017-11-12T15:00:35.921Z,61.50
2017-11-12T15:03:04.559Z,59.80
2017-11-12T15:05:32.809Z,59.80
2017-11-12T15:08:01.131Z,60.10
2017-11-12T15:10:29.402Z,61.70
2017-11-12T15:12:57.695Z,62.80
2017-11-12T15:15:25.937Z,63.30
2017-11-12T15:17:54.251Z,63.00
2017-11-12T15:20:22.508Z,62.80
2017-11-12T15:22:50.741Z,64.00
2017-11-12T15:25:19.039Z,63.00
2017-11-12T15:27:47.293Z,61.30
2017-11-12T15:30:15.541Z,60.30
2017-11-12T15:32:43.808Z,60.10
2017-11-12T15:35:12.068Z,59.70
2017-11-12T15:37:40.394Z,60.40
2017-11-12T15:40:08.719Z,61.90
2017-11-12T15:42:36.992Z,60.60
2017-11-12T15:45:05.271Z,58.80
2017-11-12T15:47:33.567Z,57.20
2017-11-12T15:50:01.819Z,58.00
2017-11-12T15:52:30.107Z,59.50
2017-11-12T15:54:58.358Z,60.10
2017-11-12T15:57:26.629Z,62.40
2017-11-12T15:59:54.882Z,62.80
2017-11-12T16:02:23.422Z,63.70
2017-11-12T16:04:51.660Z,65.10
2017-11-12T16:07:20.029Z,66.90
2017-11-12T16:09:48.273Z,66.20
2017-11-12T16:12:17.254Z,65.30
2017-11-12T16:14:45.526Z,65.30
2017-11-12T16:17:13.776Z,66.90
2017-11-12T16:19:42.029Z,69.10
2017-11-12T16:22:10.269Z,67.10
2017-11-12T16:24:39.234Z,60.10
2017-11-12T16:27:07.574Z,60.10
2017-11-12T16:29:35.815Z,61.20
2017-11-12T16:32:04.511Z,57.90
2017-11-12T16:34:33.134Z,57.40
2017-11-12T16:37:01.392Z,57.40
2017-11-12T16:39:29.670Z,56.60
2017-11-12T16:41:57.952Z,57.40
2017-11-12T16:44:26.189Z,57.70
2017-11-12T16:46:55.057Z,64.80
2017-11-12T16:49:23.302Z,64.80
2017-11-12T16:51:51.542Z,63.30
2017-11-12T16:54:20.336Z,71.60
2017-11-12T16:56:48.589Z,71.60
2017-11-12T16:59:17.257Z,69.60
2017-11-12T17:01:45.513Z,69.60
2017-11-12T17:04:14.013Z,71.40
2017-11-12T17:06:43.157Z,75.40
2017-11-12T17:09:11.409Z,70.10
2017-11-12T17:11:40.055Z,69.10
2017-11-12T17:14:08.877Z,69.10
2017-11-12T17:16:37.538Z,68.30
2017-11-12T17:19:05.789Z,68.30
2017-11-12T17:21:34.485Z,70.30
2017-11-12T17:24:02.817Z,70.10
2017-11-12T17:26:31.465Z,66.00
2017-11-12T17:29:00.140Z,66.40
2017-11-12T17:31:28.404Z,66.40
2017-11-12T17:33:56.674Z,66.40
2017-11-12T17:36:24.963Z,68.00
2017-11-12T17:38:53.230Z,70.50
2017-11-12T17:41:21.510Z,70.00
2017-11-12T17:43:49.818Z,70.30
2017-11-12T17:46:18.476Z,70.70
2017-11-12T17:48:46.726Z,70.70
2017-11-12T17:51:15.408Z,70.50
2017-11-12T17:53:43.722Z,70.30
2017-11-12T17:56:12.482Z,71.00
2017-11-12T17:58:40.759Z,71.00
2017-11-12T18:01:09.030Z,71.20
2017-11-12T18:03:37.317Z,71.00
2017-11-12T18:06:05.610Z,71.40
2017-11-12T18:08:33.868Z,71.80
2017-11-12T18:11:02.479Z,71.90
2017-11-12T18:13:30.723Z,72.10
2017-11-12T18:15:59.695Z,70.00
2017-11-12T18:18:27.986Z,68.70
2017-11-12T18:20:56.310Z,68.90
2017-11-12T18:23:24.890Z,69.20
2017-11-12T18:25:53.200Z,69.10
2017-11-12T18:28:21.510Z,69.20
2017-11-12T18:30:49.978Z,67.60
2017-11-12T18:33:18.267Z,67.80
2017-11-12T18:35:46.559Z,67.30
2017-11-12T18:38:14.857Z,66.70
2017-11-12T18:40:43.163Z,66.70
2017-11-12T18:43:11.834Z,67.80
2017-11-12T18:45:40.561Z,68.00
2017-11-12T18:48:08.806Z,68.00
2017-11-12T18:50:37.920Z,68.20
2017-11-12T18:53:06.194Z,68.50
2017-11-12T18:55:37.911Z,68.50
2017-11-12T18:58:16.196Z,68.70
2017-11-12T19:00:45.650Z,69.40
2017-11-12T19:06:20.081Z,69.80
2017-11-12T19:08:48.489Z,69.40
2017-11-12T19:11:16.876Z,69.10
2017-11-12T19:13:45.273Z,68.70
2017-11-12T19:16:13.710Z,68.00
2017-11-12T19:18:42.669Z,67.80
2017-11-12T19:21:14.137Z,67.10
2017-11-12T19:23:43.102Z,68.00
2017-11-12T19:26:14.627Z,68.70
2017-11-12T19:28:53.904Z,68.70
2017-11-12T19:31:22.391Z,68.90
2017-11-12T19:33:51.265Z,69.60
2017-11-12T19:36:19.904Z,68.70
2017-11-12T19:38:48.621Z,68.50
2017-11-12T19:41:17.457Z,68.90
2017-11-12T19:43:46.803Z,69.40
2017-11-12T19:46:15.525Z,70.10
2017-11-12T19:48:44.442Z,70.30
2017-11-12T19:51:13.102Z,69.80
2017-11-12T19:53:41.734Z,69.40
2017-11-12T19:56:10.552Z,68.20
2017-11-12T19:58:39.305Z,67.80
2017-11-12T20:01:07.925Z,68.20
2017-11-12T20:03:37.156Z,67.10
2017-11-12T20:06:05.801Z,67.10
2017-11-12T20:08:34.673Z,66.90
2017-11-12T20:11:03.240Z,67.60
2017-11-12T20:13:31.841Z,68.20
2017-11-12T20:16:00.395Z,67.40
2017-11-12T20:18:29.358Z,66.60
2017-11-12T20:20:58.336Z,66.00
2017-11-12T20:23:26.812Z,66.00
2017-11-12T20:25:55.224Z,65.50
2017-11-12T20:28:23.619Z,65.50
2017-11-12T20:30:51.985Z,65.50
2017-11-12T20:33:20.302Z,64.90
2017-11-12T20:35:48.606Z,64.60
2017-11-12T20:38:16.894Z,66.00
2017-11-12T20:40:45.669Z,63.90
2017-11-12T20:43:13.965Z,62.40
2017-11-12T20:45:42.631Z,60.60
2017-11-12T20:48:10.902Z,60.60
2017-11-12T20:50:39.153Z,60.40
2017-11-12T20:53:07.425Z,58.00
2017-11-12T20:55:35.671Z,57.90
2017-11-12T20:58:04.335Z,59.10
2017-11-12T21:00:39.437Z,59.10
2017-11-12T21:03:07.686Z,59.40
2017-11-12T21:05:37.740Z,60.00
2017-11-12T21:08:06.056Z,59.50
2017-11-12T21:10:34.721Z,59.80
2017-11-12T21:13:03.471Z,60.40
2017-11-12T21:15:31.726Z,60.40
2017-11-12T21:17:59.983Z,62.40
2017-11-12T21:20:34.162Z,61.20
2017-11-12T21:23:08.196Z,61.20
2017-11-12T21:25:36.477Z,62.40
2017-11-12T21:28:08.225Z,63.10
2017-11-12T21:30:37.819Z,63.00
2017-11-12T21:33:21.855Z,63.00
2017-11-12T21:38:54.796Z,62.60
2017-11-12T21:41:23.453Z,63.70
2017-11-12T21:43:51.714Z,63.70
2017-11-12T21:46:19.957Z,66.70
2017-11-12T21:48:48.237Z,71.20
2017-11-12T21:51:16.504Z,75.00
2017-11-12T21:53:45.142Z,73.00
2017-11-12T21:56:13.384Z,73.00
2017-11-12T21:58:41.655Z,74.10
2017-11-12T22:01:09.890Z,74.10
2017-11-12T22:03:38.556Z,74.30
2017-11-12T22:06:06.883Z,74.30
2017-11-12T22:08:35.109Z,75.40
2017-11-12T22:11:03.350Z,75.70
2017-11-12T22:13:31.600Z,74.10
2017-11-12T22:15:59.843Z,75.50
2017-11-12T22:18:28.605Z,77.10
2017-11-12T22:20:56.920Z,77.10
2017-11-12T22:23:25.194Z,76.80
2017-11-12T22:25:53.897Z,77.00
2017-11-12T22:28:22.159Z,77.00
2017-11-12T22:30:50.802Z,73.70
2017-11-12T22:33:19.110Z,73.70
2017-11-12T22:35:47.338Z,73.90
2017-11-12T22:38:15.594Z,74.60
2017-11-12T22:40:43.854Z,76.30
2017-11-12T22:43:12.105Z,76.80
2017-11-12T22:45:40.406Z,78.20
2017-11-12T22:48:08.657Z,76.30
2017-11-12T22:50:36.921Z,77.00
2017-11-12T22:53:05.230Z,75.20
2017-11-12T22:55:33.861Z,73.00
2017-11-12T22:58:02.130Z,73.00
2017-11-12T23:00:30.378Z,72.70
2017-11-12T23:02:58.642Z,71.40
2017-11-12T23:05:27.320Z,71.00
2017-11-12T23:07:56.176Z,71.40
2017-11-12T23:10:24.566Z,71.40
2017-11-12T23:12:52.814Z,71.60
2017-11-12T23:15:21.073Z,71.90
2017-11-12T23:17:50.432Z,71.60
2017-11-12T23:20:19.371Z,72.70
2017-11-12T23:22:47.642Z,73.70
2017-11-12T23:25:16.017Z,75.20
2017-11-12T23:27:44.269Z,77.10
2017-11-12T23:30:13.013Z,76.80
2017-11-12T23:32:41.410Z,76.80
2017-11-12T23:35:09.668Z,79.10
2017-11-12T23:37:37.911Z,80.90
2017-11-12T23:40:07.277Z,75.90
2017-11-12T23:42:35.989Z,74.80
2017-11-12T23:45:04.348Z,75.00
2017-11-12T23:47:32.993Z,75.90
2017-11-12T23:50:01.302Z,76.30
2017-11-12T23:52:29.977Z,74.10
2017-11-12T23:54:58.232Z,74.10
2017-11-12T23:57:26.494Z,72.80
2017-11-12T23:59:54.733Z,70.70
